Terminal Aerodrome Forecast
Issued by NWS

Home | Current Version | Previous Version | Text Only | Print | Product List | Glossary On
Versions: 1 2 3 4 5 6 7 8 9 10 11 12 13
000
FTUS45 KGGW 261730
TAFOLF
TAF
KOLF 261730Z 2618/2718 30009KT P6SM -SHRA FEW015 BKN029
     FM262000 32010KT P6SM -SHRA OVC040
     FM270000 36008KT P6SM VCSH BKN045
     FM270400 05004KT P6SM VCSH OVC040
     FM270600 04004KT P6SM BKN050=

USA.gov is the U.S. government's official web portal to all federal, state and local government web resources and services.